sensor_id;sensor_type;location;lat;lon;timestamp;P1;durP1;ratioP1;P2;durP2;ratioP2
1471;SDS011;963;42.644;23.336;2023-06-26T00:00:11;20.10;;;17.53;;
1471;SDS011;963;42.644;23.336;2023-06-26T00:02:37;18.17;;;15.30;;
1471;SDS011;963;42.644;23.336;2023-06-26T00:05:03;17.80;;;15.90;;
1471;SDS011;963;42.644;23.336;2023-06-26T00:07:30;19.20;;;15.97;;
1471;SDS011;963;42.644;23.336;2023-06-26T00:09:58;19.13;;;16.83;;
1471;SDS011;963;42.644;23.336;2023-06-26T00:12:24;17.03;;;15.37;;
1471;SDS011;963;42.644;23.336;2023-06-26T00:14:49;19.50;;;15.73;;
1471;SDS011;963;42.644;23.336;2023-06-26T00:17:14;18.47;;;14.67;;
1471;SDS011;963;42.644;23.336;2023-06-26T00:19:40;18.80;;;15.53;;
1471;SDS011;963;42.644;23.336;2023-06-26T00:22:05;17.50;;;14.07;;
1471;SDS011;963;42.644;23.336;2023-06-26T00:24:31;21.90;;;14.33;;
1471;SDS011;963;42.644;23.336;2023-06-26T00:26:56;15.10;;;13.33;;
1471;SDS011;963;42.644;23.336;2023-06-26T00:29:21;17.20;;;14.57;;
1471;SDS011;963;42.644;23.336;2023-06-26T00:31:47;15.97;;;14.20;;
1471;SDS011;963;42.644;23.336;2023-06-26T00:34:12;15.23;;;12.87;;
1471;SDS011;963;42.644;23.336;2023-06-26T00:36:38;16.30;;;13.83;;
1471;SDS011;963;42.644;23.336;2023-06-26T00:39:03;15.20;;;13.43;;
1471;SDS011;963;42.644;23.336;2023-06-26T00:41:29;17.50;;;13.30;;
1471;SDS011;963;42.644;23.336;2023-06-26T00:43:54;17.33;;;13.63;;
1471;SDS011;963;42.644;23.336;2023-06-26T00:46:20;15.97;;;13.83;;
1471;SDS011;963;42.644;23.336;2023-06-26T00:48:46;14.90;;;13.30;;
1471;SDS011;963;42.644;23.336;2023-06-26T00:51:13;14.10;;;12.30;;
1471;SDS011;963;42.644;23.336;2023-06-26T00:53:39;13.53;;;12.03;;
1471;SDS011;963;42.644;23.336;2023-06-26T00:56:05;14.43;;;12.50;;
1471;SDS011;963;42.644;23.336;2023-06-26T00:58:30;13.43;;;11.33;;
1471;SDS011;963;42.644;23.336;2023-06-26T01:00:56;13.13;;;11.83;;
1471;SDS011;963;42.644;23.336;2023-06-26T01:03:22;14.10;;;11.40;;
1471;SDS011;963;42.644;23.336;2023-06-26T01:05:49;16.63;;;11.63;;
1471;SDS011;963;42.644;23.336;2023-06-26T01:08:19;14.27;;;11.70;;
1471;SDS011;963;42.644;23.336;2023-06-26T01:10:45;13.20;;;11.80;;
1471;SDS011;963;42.644;23.336;2023-06-26T01:13:12;14.30;;;12.27;;
1471;SDS011;963;42.644;23.336;2023-06-26T01:15:38;13.37;;;11.97;;
1471;SDS011;963;42.644;23.336;2023-06-26T01:18:05;12.37;;;11.07;;
1471;SDS011;963;42.644;23.336;2023-06-26T01:20:37;13.13;;;11.73;;
1471;SDS011;963;42.644;23.336;2023-06-26T01:23:29;14.47;;;11.80;;
1471;SDS011;963;42.644;23.336;2023-06-26T01:28:36;12.83;;;11.53;;
1471;SDS011;963;42.644;23.336;2023-06-26T01:31:06;13.10;;;10.93;;
1471;SDS011;963;42.644;23.336;2023-06-26T01:33:32;13.77;;;12.07;;
1471;SDS011;963;42.644;23.336;2023-06-26T01:35:58;13.80;;;12.00;;
1471;SDS011;963;42.644;23.336;2023-06-26T01:38:24;15.07;;;12.70;;
1471;SDS011;963;42.644;23.336;2023-06-26T01:40:50;13.80;;;12.40;;
1471;SDS011;963;42.644;23.336;2023-06-26T01:45:51;14.07;;;12.57;;
1471;SDS011;963;42.644;23.336;2023-06-26T01:48:23;13.93;;;11.70;;
1471;SDS011;963;42.644;23.336;2023-06-26T01:50:52;15.83;;;11.23;;
1471;SDS011;963;42.644;23.336;2023-06-26T01:53:19;14.30;;;12.57;;
1471;SDS011;963;42.644;23.336;2023-06-26T01:55:51;13.90;;;12.50;;
1471;SDS011;963;42.644;23.336;2023-06-26T01:58:22;15.30;;;12.43;;
1471;SDS011;963;42.644;23.336;2023-06-26T02:00:50;14.10;;;12.07;;
1471;SDS011;963;42.644;23.336;2023-06-26T02:03:15;13.60;;;12.00;;
1471;SDS011;963;42.644;23.336;2023-06-26T02:05:41;12.97;;;11.33;;
1471;SDS011;963;42.644;23.336;2023-06-26T02:08:08;13.33;;;11.27;;
1471;SDS011;963;42.644;23.336;2023-06-26T02:10:33;15.50;;;11.80;;
1471;SDS011;963;42.644;23.336;2023-06-26T02:12:59;12.50;;;11.20;;
1471;SDS011;963;42.644;23.336;2023-06-26T02:15:25;14.07;;;12.27;;
1471;SDS011;963;42.644;23.336;2023-06-26T02:17:50;26.67;;;14.60;;
1471;SDS011;963;42.644;23.336;2023-06-26T02:20:16;12.83;;;11.17;;
1471;SDS011;963;42.644;23.336;2023-06-26T02:22:41;13.87;;;11.77;;
1471;SDS011;963;42.644;23.336;2023-06-26T02:25:07;13.93;;;11.63;;
1471;SDS011;963;42.644;23.336;2023-06-26T02:27:34;13.50;;;12.00;;
1471;SDS011;963;42.644;23.336;2023-06-26T02:29:59;13.77;;;12.47;;
1471;SDS011;963;42.644;23.336;2023-06-26T02:32:25;14.10;;;11.37;;
1471;SDS011;963;42.644;23.336;2023-06-26T02:34:50;14.47;;;13.00;;
1471;SDS011;963;42.644;23.336;2023-06-26T02:37:19;15.17;;;13.60;;
1471;SDS011;963;42.644;23.336;2023-06-26T02:39:44;14.87;;;13.43;;
1471;SDS011;963;42.644;23.336;2023-06-26T02:42:10;16.13;;;14.53;;
1471;SDS011;963;42.644;23.336;2023-06-26T02:44:35;21.37;;;14.90;;
1471;SDS011;963;42.644;23.336;2023-06-26T02:47:00;17.50;;;15.63;;
1471;SDS011;963;42.644;23.336;2023-06-26T02:49:26;16.70;;;15.00;;
1471;SDS011;963;42.644;23.336;2023-06-26T02:51:51;18.50;;;14.00;;
1471;SDS011;963;42.644;23.336;2023-06-26T02:54:17;15.40;;;13.90;;
1471;SDS011;963;42.644;23.336;2023-06-26T02:56:42;17.27;;;14.07;;
1471;SDS011;963;42.644;23.336;2023-06-26T02:59:07;16.17;;;14.47;;
1471;SDS011;963;42.644;23.336;2023-06-26T03:01:33;18.53;;;15.20;;
1471;SDS011;963;42.644;23.336;2023-06-26T03:03:58;16.27;;;14.63;;
1471;SDS011;963;42.644;23.336;2023-06-26T03:06:25;17.93;;;14.13;;
1471;SDS011;963;42.644;23.336;2023-06-26T03:08:51;15.37;;;13.77;;
1471;SDS011;963;42.644;23.336;2023-06-26T03:11:16;17.37;;;14.20;;
1471;SDS011;963;42.644;23.336;2023-06-26T03:13:42;18.40;;;13.67;;
1471;SDS011;963;42.644;23.336;2023-06-26T03:16:07;17.00;;;13.77;;
1471;SDS011;963;42.644;23.336;2023-06-26T03:18:32;15.40;;;13.93;;
1471;SDS011;963;42.644;23.336;2023-06-26T03:20:58;15.77;;;14.17;;
1471;SDS011;963;42.644;23.336;2023-06-26T03:23:24;17.30;;;14.53;;
1471;SDS011;963;42.644;23.336;2023-06-26T03:25:50;16.30;;;14.60;;
1471;SDS011;963;42.644;23.336;2023-06-26T03:28:15;14.80;;;13.23;;
1471;SDS011;963;42.644;23.336;2023-06-26T03:30:41;16.77;;;15.17;;
1471;SDS011;963;42.644;23.336;2023-06-26T03:33:07;16.70;;;15.00;;
1471;SDS011;963;42.644;23.336;2023-06-26T03:35:32;16.97;;;14.90;;
1471;SDS011;963;42.644;23.336;2023-06-26T03:37:58;16.20;;;14.63;;
1471;SDS011;963;42.644;23.336;2023-06-26T03:40:24;15.37;;;13.73;;
1471;SDS011;963;42.644;23.336;2023-06-26T03:42:49;16.27;;;14.67;;
1471;SDS011;963;42.644;23.336;2023-06-26T03:45:15;16.50;;;14.83;;
1471;SDS011;963;42.644;23.336;2023-06-26T03:47:40;16.47;;;14.77;;
1471;SDS011;963;42.644;23.336;2023-06-26T03:50:06;17.63;;;15.80;;
1471;SDS011;963;42.644;23.336;2023-06-26T03:52:31;16.47;;;14.87;;
1471;SDS011;963;42.644;23.336;2023-06-26T03:54:57;16.80;;;15.10;;
1471;SDS011;963;42.644;23.336;2023-06-26T03:57:23;16.77;;;15.00;;
1471;SDS011;963;42.644;23.336;2023-06-26T03:59:49;18.23;;;16.30;;
1471;SDS011;963;42.644;23.336;2023-06-26T04:02:14;17.60;;;15.80;;
1471;SDS011;963;42.644;23.336;2023-06-26T04:04:39;18.63;;;15.50;;
1471;SDS011;963;42.644;23.336;2023-06-26T04:07:05;16.70;;;15.00;;
1471;SDS011;963;42.644;23.336;2023-06-26T04:09:30;17.80;;;15.90;;
1471;SDS011;963;42.644;23.336;2023-06-26T04:11:55;16.23;;;14.60;;
1471;SDS011;963;42.644;23.336;2023-06-26T04:14:21;15.77;;;14.20;;
1471;SDS011;963;42.644;23.336;2023-06-26T04:16:46;15.50;;;13.90;;
1471;SDS011;963;42.644;23.336;2023-06-26T04:19:12;16.33;;;13.53;;
1471;SDS011;963;42.644;23.336;2023-06-26T04:21:38;16.27;;;14.57;;
1471;SDS011;963;42.644;23.336;2023-06-26T04:24:04;18.47;;;15.00;;
1471;SDS011;963;42.644;23.336;2023-06-26T04:26:29;16.10;;;14.50;;
1471;SDS011;963;42.644;23.336;2023-06-26T04:28:55;15.57;;;14.07;;
1471;SDS011;963;42.644;23.336;2023-06-26T04:31:20;16.00;;;14.40;;
1471;SDS011;963;42.644;23.336;2023-06-26T04:33:47;16.20;;;14.17;;
1471;SDS011;963;42.644;23.336;2023-06-26T04:36:16;15.70;;;14.10;;
1471;SDS011;963;42.644;23.336;2023-06-26T04:38:44;16.47;;;14.80;;
1471;SDS011;963;42.644;23.336;2023-06-26T04:41:10;15.57;;;13.97;;
1471;SDS011;963;42.644;23.336;2023-06-26T04:43:35;17.07;;;14.67;;
1471;SDS011;963;42.644;23.336;2023-06-26T04:46:02;14.50;;;13.00;;
1471;SDS011;963;42.644;23.336;2023-06-26T04:48:28;15.73;;;13.63;;
1471;SDS011;963;42.644;23.336;2023-06-26T04:50:54;15.47;;;13.87;;
1471;SDS011;963;42.644;23.336;2023-06-26T04:53:21;17.20;;;15.40;;
1471;SDS011;963;42.644;23.336;2023-06-26T04:55:46;16.37;;;14.67;;
1471;SDS011;963;42.644;23.336;2023-06-26T04:58:12;15.93;;;14.33;;
1471;SDS011;963;42.644;23.336;2023-06-26T05:00:37;16.13;;;14.43;;
1471;SDS011;963;42.644;23.336;2023-06-26T05:03:03;16.80;;;14.33;;
1471;SDS011;963;42.644;23.336;2023-06-26T05:05:28;15.80;;;14.20;;
1471;SDS011;963;42.644;23.336;2023-06-26T05:07:54;15.60;;;14.10;;
1471;SDS011;963;42.644;23.336;2023-06-26T05:10:20;15.50;;;13.90;;
1471;SDS011;963;42.644;23.336;2023-06-26T05:12:46;17.00;;;15.30;;
1471;SDS011;963;42.644;23.336;2023-06-26T05:15:11;17.10;;;14.00;;
1471;SDS011;963;42.644;23.336;2023-06-26T05:17:37;16.50;;;14.70;;
1471;SDS011;963;42.644;23.336;2023-06-26T05:20:02;16.67;;;14.00;;
1471;SDS011;963;42.644;23.336;2023-06-26T05:22:28;15.33;;;13.60;;
1471;SDS011;963;42.644;23.336;2023-06-26T05:24:54;14.77;;;13.13;;
1471;SDS011;963;42.644;23.336;2023-06-26T05:27:20;15.93;;;14.23;;
1471;SDS011;963;42.644;23.336;2023-06-26T05:29:47;15.33;;;13.83;;
1471;SDS011;963;42.644;23.336;2023-06-26T05:32:15;15.40;;;13.80;;
1471;SDS011;963;42.644;23.336;2023-06-26T05:34:47;15.37;;;13.97;;
1471;SDS011;963;42.644;23.336;2023-06-26T05:37:25;15.30;;;13.50;;
1471;SDS011;963;42.644;23.336;2023-06-26T05:39:53;14.87;;;13.27;;
1471;SDS011;963;42.644;23.336;2023-06-26T05:42:18;14.73;;;13.27;;
1471;SDS011;963;42.644;23.336;2023-06-26T05:44:44;17.10;;;14.70;;
1471;SDS011;963;42.644;23.336;2023-06-26T05:47:09;15.57;;;14.07;;
1471;SDS011;963;42.644;23.336;2023-06-26T05:49:35;16.67;;;14.97;;
1471;SDS011;963;42.644;23.336;2023-06-26T05:52:00;15.93;;;14.33;;
1471;SDS011;963;42.644;23.336;2023-06-26T05:54:26;14.73;;;13.23;;
1471;SDS011;963;42.644;23.336;2023-06-26T05:56:56;14.97;;;13.47;;
1471;SDS011;963;42.644;23.336;2023-06-26T05:59:24;17.00;;;13.10;;
1471;SDS011;963;42.644;23.336;2023-06-26T06:01:51;18.43;;;15.17;;
1471;SDS011;963;42.644;23.336;2023-06-26T06:04:17;16.33;;;14.73;;
1471;SDS011;963;42.644;23.336;2023-06-26T06:06:42;16.60;;;14.00;;
1471;SDS011;963;42.644;23.336;2023-06-26T06:09:08;15.10;;;13.60;;
1471;SDS011;963;42.644;23.336;2023-06-26T06:11:33;14.77;;;13.27;;
1471;SDS011;963;42.644;23.336;2023-06-26T06:13:58;16.30;;;14.60;;
1471;SDS011;963;42.644;23.336;2023-06-26T06:16:25;19.80;;;14.73;;
1471;SDS011;963;42.644;23.336;2023-06-26T06:18:50;14.60;;;13.20;;
1471;SDS011;963;42.644;23.336;2023-06-26T06:21:16;13.73;;;12.33;;
1471;SDS011;963;42.644;23.336;2023-06-26T06:23:41;13.93;;;12.63;;
1471;SDS011;963;42.644;23.336;2023-06-26T06:26:07;15.97;;;14.27;;
1471;SDS011;963;42.644;23.336;2023-06-26T06:28:32;13.10;;;11.80;;
1471;SDS011;963;42.644;23.336;2023-06-26T06:30:57;14.27;;;12.33;;
1471;SDS011;963;42.644;23.336;2023-06-26T06:33:23;13.50;;;12.07;;
1471;SDS011;963;42.644;23.336;2023-06-26T06:35:48;14.73;;;13.33;;
1471;SDS011;963;42.644;23.336;2023-06-26T06:38:13;13.10;;;11.80;;
1471;SDS011;963;42.644;23.336;2023-06-26T06:40:39;14.30;;;12.60;;
1471;SDS011;963;42.644;23.336;2023-06-26T06:43:04;12.70;;;11.37;;
1471;SDS011;963;42.644;23.336;2023-06-26T06:45:30;13.67;;;12.27;;
1471;SDS011;963;42.644;23.336;2023-06-26T06:47:55;12.77;;;11.57;;
1471;SDS011;963;42.644;23.336;2023-06-26T06:50:20;13.67;;;12.33;;
1471;SDS011;963;42.644;23.336;2023-06-26T06:52:46;13.53;;;12.17;;
1471;SDS011;963;42.644;23.336;2023-06-26T06:55:11;13.47;;;12.27;;
1471;SDS011;963;42.644;23.336;2023-06-26T06:57:37;16.80;;;13.70;;
1471;SDS011;963;42.644;23.336;2023-06-26T07:00:05;15.63;;;13.07;;
1471;SDS011;963;42.644;23.336;2023-06-26T07:02:36;13.97;;;12.30;;
1471;SDS011;963;42.644;23.336;2023-06-26T07:05:03;10.93;;;9.90;;
1471;SDS011;963;42.644;23.336;2023-06-26T07:07:30;11.50;;;10.33;;
1471;SDS011;963;42.644;23.336;2023-06-26T07:09:58;11.87;;;10.67;;
1471;SDS011;963;42.644;23.336;2023-06-26T07:12:30;12.20;;;11.00;;
1471;SDS011;963;42.644;23.336;2023-06-26T07:14:56;11.50;;;10.40;;
1471;SDS011;963;42.644;23.336;2023-06-26T07:17:22;11.27;;;10.17;;
1471;SDS011;963;42.644;23.336;2023-06-26T07:19:48;11.90;;;10.20;;
1471;SDS011;963;42.644;23.336;2023-06-26T07:22:14;15.77;;;9.93;;
1471;SDS011;963;42.644;23.336;2023-06-26T07:24:39;11.07;;;9.77;;
1471;SDS011;963;42.644;23.336;2023-06-26T07:27:05;11.60;;;7.60;;
1471;SDS011;963;42.644;23.336;2023-06-26T07:29:31;8.40;;;7.60;;
1471;SDS011;963;42.644;23.336;2023-06-26T07:31:56;9.00;;;8.10;;
1471;SDS011;963;42.644;23.336;2023-06-26T07:34:21;10.77;;;9.67;;
1471;SDS011;963;42.644;23.336;2023-06-26T07:36:47;12.60;;;8.73;;
1471;SDS011;963;42.644;23.336;2023-06-26T07:39:12;9.13;;;8.20;;
1471;SDS011;963;42.644;23.336;2023-06-26T07:41:38;10.10;;;9.03;;
1471;SDS011;963;42.644;23.336;2023-06-26T07:44:03;9.37;;;8.30;;
1471;SDS011;963;42.644;23.336;2023-06-26T07:46:28;8.53;;;7.57;;
1471;SDS011;963;42.644;23.336;2023-06-26T07:48:54;8.63;;;7.70;;
1471;SDS011;963;42.644;23.336;2023-06-26T07:51:19;7.80;;;6.00;;
1471;SDS011;963;42.644;23.336;2023-06-26T07:53:45;7.00;;;6.37;;
1471;SDS011;963;42.644;23.336;2023-06-26T07:56:10;7.97;;;6.30;;
1471;SDS011;963;42.644;23.336;2023-06-26T07:58:36;6.67;;;6.07;;
1471;SDS011;963;42.644;23.336;2023-06-26T08:01:01;7.00;;;6.13;;
1471;SDS011;963;42.644;23.336;2023-06-26T08:03:27;10.83;;;6.33;;
1471;SDS011;963;42.644;23.336;2023-06-26T08:05:52;8.07;;;7.07;;
1471;SDS011;963;42.644;23.336;2023-06-26T08:08:17;8.00;;;6.60;;
1471;SDS011;963;42.644;23.336;2023-06-26T08:10:43;7.73;;;6.77;;
1471;SDS011;963;42.644;23.336;2023-06-26T08:13:08;8.23;;;6.30;;
1471;SDS011;963;42.644;23.336;2023-06-26T08:15:34;8.27;;;5.50;;
1471;SDS011;963;42.644;23.336;2023-06-26T08:18:00;6.80;;;5.80;;
1471;SDS011;963;42.644;23.336;2023-06-26T08:20:25;8.23;;;6.90;;
1471;SDS011;963;42.644;23.336;2023-06-26T08:22:51;8.47;;;5.47;;
1471;SDS011;963;42.644;23.336;2023-06-26T08:25:17;6.30;;;5.70;;
1471;SDS011;963;42.644;23.336;2023-06-26T08:27:42;8.23;;;6.80;;
1471;SDS011;963;42.644;23.336;2023-06-26T08:30:08;7.20;;;6.03;;
1471;SDS011;963;42.644;23.336;2023-06-26T08:32:34;6.80;;;6.17;;
1471;SDS011;963;42.644;23.336;2023-06-26T08:34:59;8.50;;;6.00;;
1471;SDS011;963;42.644;23.336;2023-06-26T08:37:25;6.20;;;5.60;;
1471;SDS011;963;42.644;23.336;2023-06-26T08:39:50;6.90;;;6.20;;
1471;SDS011;963;42.644;23.336;2023-06-26T08:42:16;7.13;;;6.43;;
1471;SDS011;963;42.644;23.336;2023-06-26T08:44:41;7.97;;;6.90;;
1471;SDS011;963;42.644;23.336;2023-06-26T08:47:07;8.00;;;7.20;;
1471;SDS011;963;42.644;23.336;2023-06-26T08:52:36;9.57;;;6.77;;
1471;SDS011;963;42.644;23.336;2023-06-26T08:55:09;8.90;;;6.27;;
1471;SDS011;963;42.644;23.336;2023-06-26T08:57:36;9.77;;;6.33;;
1471;SDS011;963;42.644;23.336;2023-06-26T09:00:02;6.57;;;5.90;;
1471;SDS011;963;42.644;23.336;2023-06-26T09:02:28;6.60;;;6.00;;
1471;SDS011;963;42.644;23.336;2023-06-26T09:04:54;5.40;;;4.90;;
1471;SDS011;963;42.644;23.336;2023-06-26T09:07:20;6.20;;;5.53;;
1471;SDS011;963;42.644;23.336;2023-06-26T09:09:45;10.87;;;5.67;;
1471;SDS011;963;42.644;23.336;2023-06-26T09:12:10;6.20;;;5.00;;
1471;SDS011;963;42.644;23.336;2023-06-26T09:14:36;6.13;;;5.53;;
1471;SDS011;963;42.644;23.336;2023-06-26T09:17:03;6.13;;;5.53;;
1471;SDS011;963;42.644;23.336;2023-06-26T09:19:28;5.53;;;5.03;;
1471;SDS011;963;42.644;23.336;2023-06-26T09:21:54;6.57;;;5.93;;
1471;SDS011;963;42.644;23.336;2023-06-26T09:24:20;6.57;;;5.97;;
1471;SDS011;963;42.644;23.336;2023-06-26T09:26:46;7.27;;;6.57;;
1471;SDS011;963;42.644;23.336;2023-06-26T09:29:13;5.63;;;5.13;;
1471;SDS011;963;42.644;23.336;2023-06-26T09:31:39;6.33;;;5.70;;
1471;SDS011;963;42.644;23.336;2023-06-26T09:34:05;6.10;;;5.13;;
1471;SDS011;963;42.644;23.336;2023-06-26T09:36:31;6.57;;;5.23;;
1471;SDS011;963;42.644;23.336;2023-06-26T09:38:58;6.80;;;5.70;;
1471;SDS011;963;42.644;23.336;2023-06-26T09:41:25;6.87;;;6.17;;
1471;SDS011;963;42.644;23.336;2023-06-26T09:43:51;9.60;;;6.50;;
1471;SDS011;963;42.644;23.336;2023-06-26T09:46:17;6.03;;;5.43;;
1471;SDS011;963;42.644;23.336;2023-06-26T09:48:49;7.43;;;5.90;;
1471;SDS011;963;42.644;23.336;2023-06-26T09:51:23;9.17;;;6.30;;
1471;SDS011;963;42.644;23.336;2023-06-26T09:53:49;6.90;;;5.53;;
1471;SDS011;963;42.644;23.336;2023-06-26T09:56:15;11.00;;;5.73;;
1471;SDS011;963;42.644;23.336;2023-06-26T09:58:42;6.80;;;6.10;;
1471;SDS011;963;42.644;23.336;2023-06-26T10:01:08;6.70;;;5.90;;
1471;SDS011;963;42.644;23.336;2023-06-26T10:03:34;7.13;;;5.87;;
1471;SDS011;963;42.644;23.336;2023-06-26T10:06:00;6.43;;;5.83;;
1471;SDS011;963;42.644;23.336;2023-06-26T10:08:28;8.33;;;6.07;;
1471;SDS011;963;42.644;23.336;2023-06-26T10:10:54;7.37;;;6.67;;
1471;SDS011;963;42.644;23.336;2023-06-26T10:13:22;7.37;;;6.67;;
1471;SDS011;963;42.644;23.336;2023-06-26T10:15:56;6.20;;;5.30;;
1471;SDS011;963;42.644;23.336;2023-06-26T10:18:25;6.97;;;5.33;;
1471;SDS011;963;42.644;23.336;2023-06-26T10:20:53;8.13;;;5.57;;
1471;SDS011;963;42.644;23.336;2023-06-26T10:23:21;6.10;;;5.50;;
1471;SDS011;963;42.644;23.336;2023-06-26T10:25:51;6.60;;;6.00;;
1471;SDS011;963;42.644;23.336;2023-06-26T10:28:19;7.27;;;5.90;;
1471;SDS011;963;42.644;23.336;2023-06-26T10:30:48;6.17;;;5.53;;
1471;SDS011;963;42.644;23.336;2023-06-26T10:33:16;5.93;;;5.23;;
1471;SDS011;963;42.644;23.336;2023-06-26T10:35:42;6.60;;;5.63;;
1471;SDS011;963;42.644;23.336;2023-06-26T10:38:09;6.90;;;5.90;;
1471;SDS011;963;42.644;23.336;2023-06-26T10:40:44;6.10;;;5.50;;
1471;SDS011;963;42.644;23.336;2023-06-26T10:43:12;6.77;;;5.40;;
1471;SDS011;963;42.644;23.336;2023-06-26T10:45:45;10.63;;;5.93;;
1471;SDS011;963;42.644;23.336;2023-06-26T10:48:15;6.90;;;5.10;;
1471;SDS011;963;42.644;23.336;2023-06-26T10:50:40;7.23;;;5.50;;
1471;SDS011;963;42.644;23.336;2023-06-26T10:56:04;8.90;;;5.17;;
1471;SDS011;963;42.644;23.336;2023-06-26T11:03:59;9.53;;;5.70;;
1471;SDS011;963;42.644;23.336;2023-06-26T11:06:26;6.57;;;5.73;;
1471;SDS011;963;42.644;23.336;2023-06-26T11:08:53;11.40;;;6.20;;
1471;SDS011;963;42.644;23.336;2023-06-26T11:11:20;7.50;;;6.20;;
1471;SDS011;963;42.644;23.336;2023-06-26T11:13:46;8.13;;;6.13;;
1471;SDS011;963;42.644;23.336;2023-06-26T11:16:12;7.70;;;6.43;;
1471;SDS011;963;42.644;23.336;2023-06-26T11:18:39;6.70;;;6.00;;
1471;SDS011;963;42.644;23.336;2023-06-26T11:21:06;7.37;;;5.20;;
1471;SDS011;963;42.644;23.336;2023-06-26T11:23:36;6.30;;;4.97;;
1471;SDS011;963;42.644;23.336;2023-06-26T11:26:18;8.80;;;5.30;;
1471;SDS011;963;42.644;23.336;2023-06-26T11:31:24;7.33;;;5.90;;
1471;SDS011;963;42.644;23.336;2023-06-26T11:33:49;8.33;;;6.13;;
1471;SDS011;963;42.644;23.336;2023-06-26T11:36:15;8.00;;;6.63;;
1471;SDS011;963;42.644;23.336;2023-06-26T11:38:40;6.60;;;6.00;;
1471;SDS011;963;42.644;23.336;2023-06-26T11:41:05;6.03;;;5.33;;
1471;SDS011;963;42.644;23.336;2023-06-26T11:43:33;5.70;;;5.10;;
1471;SDS011;963;42.644;23.336;2023-06-26T11:45:59;7.53;;;4.87;;
1471;SDS011;963;42.644;23.336;2023-06-26T11:48:25;8.70;;;5.20;;
1471;SDS011;963;42.644;23.336;2023-06-26T11:50:51;7.63;;;5.43;;
1471;SDS011;963;42.644;23.336;2023-06-26T11:53:16;6.03;;;5.20;;
1471;SDS011;963;42.644;23.336;2023-06-26T11:55:42;8.93;;;5.93;;
1471;SDS011;963;42.644;23.336;2023-06-26T11:58:10;7.23;;;6.27;;
1471;SDS011;963;42.644;23.336;2023-06-26T12:00:40;9.03;;;6.03;;
1471;SDS011;963;42.644;23.336;2023-06-26T12:03:06;10.37;;;5.40;;
1471;SDS011;963;42.644;23.336;2023-06-26T12:05:32;6.90;;;5.70;;
1471;SDS011;963;42.644;23.336;2023-06-26T12:07:57;6.93;;;6.23;;
1471;SDS011;963;42.644;23.336;2023-06-26T12:10:24;6.60;;;5.73;;
1471;SDS011;963;42.644;23.336;2023-06-26T12:12:50;6.87;;;5.90;;
1471;SDS011;963;42.644;23.336;2023-06-26T12:15:15;9.20;;;5.70;;
1471;SDS011;963;42.644;23.336;2023-06-26T12:17:41;8.37;;;5.57;;
1471;SDS011;963;42.644;23.336;2023-06-26T12:20:19;6.00;;;5.40;;
1471;SDS011;963;42.644;23.336;2023-06-26T12:22:46;7.40;;;5.80;;
1471;SDS011;963;42.644;23.336;2023-06-26T12:25:13;7.57;;;5.43;;
1471;SDS011;963;42.644;23.336;2023-06-26T12:27:38;8.57;;;5.87;;
1471;SDS011;963;42.644;23.336;2023-06-26T12:30:04;7.50;;;6.70;;
1471;SDS011;963;42.644;23.336;2023-06-26T12:32:30;6.50;;;5.13;;
1471;SDS011;963;42.644;23.336;2023-06-26T12:34:56;8.37;;;5.87;;
1471;SDS011;963;42.644;23.336;2023-06-26T12:37:22;6.40;;;5.23;;
1471;SDS011;963;42.644;23.336;2023-06-26T12:39:49;6.60;;;5.60;;
1471;SDS011;963;42.644;23.336;2023-06-26T12:42:17;6.87;;;5.67;;
1471;SDS011;963;42.644;23.336;2023-06-26T12:44:43;7.83;;;5.83;;
1471;SDS011;963;42.644;23.336;2023-06-26T12:47:09;5.90;;;5.30;;
1471;SDS011;963;42.644;23.336;2023-06-26T12:49:38;5.90;;;5.30;;
1471;SDS011;963;42.644;23.336;2023-06-26T12:52:07;5.50;;;5.00;;
1471;SDS011;963;42.644;23.336;2023-06-26T12:54:34;7.37;;;5.83;;
1471;SDS011;963;42.644;23.336;2023-06-26T12:57:00;6.37;;;5.53;;
1471;SDS011;963;42.644;23.336;2023-06-26T12:59:25;6.73;;;6.03;;
1471;SDS011;963;42.644;23.336;2023-06-26T13:01:51;8.70;;;6.00;;
1471;SDS011;963;42.644;23.336;2023-06-26T13:04:16;6.30;;;5.50;;
1471;SDS011;963;42.644;23.336;2023-06-26T13:06:42;6.67;;;5.97;;
1471;SDS011;963;42.644;23.336;2023-06-26T13:09:08;6.27;;;5.13;;
1471;SDS011;963;42.644;23.336;2023-06-26T13:11:33;8.50;;;6.37;;
1471;SDS011;963;42.644;23.336;2023-06-26T13:14:02;7.80;;;5.83;;
1471;SDS011;963;42.644;23.336;2023-06-26T13:16:27;7.47;;;6.37;;
1471;SDS011;963;42.644;23.336;2023-06-26T13:18:53;7.77;;;6.20;;
1471;SDS011;963;42.644;23.336;2023-06-26T13:21:18;7.73;;;6.20;;
1471;SDS011;963;42.644;23.336;2023-06-26T13:23:44;7.47;;;6.10;;
1471;SDS011;963;42.644;23.336;2023-06-26T13:26:10;6.87;;;5.87;;
1471;SDS011;963;42.644;23.336;2023-06-26T13:28:36;8.77;;;6.17;;
1471;SDS011;963;42.644;23.336;2023-06-26T13:31:02;6.70;;;5.27;;
1471;SDS011;963;42.644;23.336;2023-06-26T13:33:28;7.13;;;5.70;;
1471;SDS011;963;42.644;23.336;2023-06-26T13:35:54;5.73;;;5.13;;
1471;SDS011;963;42.644;23.336;2023-06-26T13:38:20;6.40;;;5.80;;
1471;SDS011;963;42.644;23.336;2023-06-26T13:40:49;8.70;;;5.43;;
1471;SDS011;963;42.644;23.336;2023-06-26T13:43:18;7.07;;;5.50;;
1471;SDS011;963;42.644;23.336;2023-06-26T13:45:45;6.40;;;5.67;;
1471;SDS011;963;42.644;23.336;2023-06-26T13:48:11;6.03;;;5.30;;
1471;SDS011;963;42.644;23.336;2023-06-26T13:50:36;8.50;;;6.10;;
1471;SDS011;963;42.644;23.336;2023-06-26T13:53:01;5.87;;;5.27;;
1471;SDS011;963;42.644;23.336;2023-06-26T13:55:27;6.97;;;5.37;;
1471;SDS011;963;42.644;23.336;2023-06-26T13:57:52;9.73;;;5.50;;
1471;SDS011;963;42.644;23.336;2023-06-26T14:00:18;7.23;;;5.30;;
1471;SDS011;963;42.644;23.336;2023-06-26T14:02:45;6.40;;;5.67;;
1471;SDS011;963;42.644;23.336;2023-06-26T14:05:11;6.53;;;5.90;;
1471;SDS011;963;42.644;23.336;2023-06-26T14:07:37;7.50;;;5.97;;
1471;SDS011;963;42.644;23.336;2023-06-26T14:10:03;7.57;;;6.40;;
1471;SDS011;963;42.644;23.336;2023-06-26T14:12:30;8.23;;;6.83;;
1471;SDS011;963;42.644;23.336;2023-06-26T14:14:55;8.63;;;6.43;;
1471;SDS011;963;42.644;23.336;2023-06-26T14:17:21;9.23;;;6.10;;
1471;SDS011;963;42.644;23.336;2023-06-26T14:19:49;7.13;;;6.20;;
1471;SDS011;963;42.644;23.336;2023-06-26T14:22:14;6.37;;;5.70;;
1471;SDS011;963;42.644;23.336;2023-06-26T14:24:40;8.47;;;5.43;;
1471;SDS011;963;42.644;23.336;2023-06-26T14:27:05;6.27;;;5.23;;
1471;SDS011;963;42.644;23.336;2023-06-26T14:29:31;6.60;;;5.53;;
1471;SDS011;963;42.644;23.336;2023-06-26T14:31:56;5.53;;;5.03;;
1471;SDS011;963;42.644;23.336;2023-06-26T14:34:22;6.43;;;5.60;;
1471;SDS011;963;42.644;23.336;2023-06-26T14:36:47;7.40;;;5.23;;
1471;SDS011;963;42.644;23.336;2023-06-26T14:39:12;7.77;;;5.47;;
1471;SDS011;963;42.644;23.336;2023-06-26T14:41:38;6.23;;;5.10;;
1471;SDS011;963;42.644;23.336;2023-06-26T14:44:03;7.47;;;5.53;;
1471;SDS011;963;42.644;23.336;2023-06-26T14:46:29;6.63;;;5.40;;
1471;SDS011;963;42.644;23.336;2023-06-26T14:48:55;7.90;;;6.23;;
1471;SDS011;963;42.644;23.336;2023-06-26T14:51:20;7.13;;;6.43;;
1471;SDS011;963;42.644;23.336;2023-06-26T14:53:47;7.13;;;5.93;;
1471;SDS011;963;42.644;23.336;2023-06-26T14:56:12;13.90;;;6.67;;
1471;SDS011;963;42.644;23.336;2023-06-26T14:58:38;7.30;;;6.60;;
1471;SDS011;963;42.644;23.336;2023-06-26T15:01:03;7.37;;;6.60;;
1471;SDS011;963;42.644;23.336;2023-06-26T15:03:29;7.23;;;6.53;;
1471;SDS011;963;42.644;23.336;2023-06-26T15:05:54;7.33;;;5.87;;
1471;SDS011;963;42.644;23.336;2023-06-26T15:08:20;6.70;;;6.10;;
1471;SDS011;963;42.644;23.336;2023-06-26T15:10:45;10.27;;;7.00;;
1471;SDS011;963;42.644;23.336;2023-06-26T15:13:10;7.97;;;6.73;;